KGFK

Grand Forks International Airport

Grand Forks, North Dakota, USA
METAR KGFK 232253Z 19006KT 10SM -SN OVC008 M05/M06 A3011 RMK AO2 SNB51 SLP212 P0000 T10501061
Observed Flight Rules
Jan-23 @ 22:53 UTC (42 minutes ago) Instrument Flight Rules
Wind Visibility Clouds Conditions
190° at 6 knots 10 miles
  • Overcast at 800' AGL
  • Light Snow
Temperatures Readings Precipitation
Current -5°C / 23°F
Dewpoint -6°C / 21°F
Humidity 93%
Altimeter 30.11" Hg
Pressure 1021.2 hPa
Elevation 258
Current Rain 0.005
METAR KGFK 232253Z 19006KT 10SM -SN OVC008 M05/M06 A3011 RMK AO2 SNB51 SLP212 P0000 T10501061
Observed Flight Rules
Jan-23 @ 22:53 UTC
(42 minutes ago)
IFR
Wind Visibility
190° at 6 knots 10 miles
Clouds
  • Overcast at 800' AGL
Conditions
  • Light Snow
Temperature Dewpoint
-5°C / 23°F -6°C / 21°F
Humidity Altimeter Pressure
93% 30.11" Hg 1021.2 hPa
Current Rain
0.005